createdAt,value
2019-02-17T00:00:50.013Z,25.97
2019-02-17T00:01:53.992Z,27.90
2019-02-17T00:02:57.853Z,26.85
2019-02-17T00:04:01.773Z,24.37
2019-02-17T00:05:05.891Z,26.15
2019-02-17T00:06:09.844Z,26.97
2019-02-17T00:07:16.076Z,24.87
2019-02-17T00:08:22.109Z,23.20
2019-02-17T00:09:26.022Z,24.63
2019-02-17T00:10:29.958Z,24.72
2019-02-17T00:11:34.115Z,27.27
2019-02-17T00:12:38.194Z,24.23
2019-02-17T00:13:42.442Z,24.75
2019-02-17T00:14:46.841Z,25.80
2019-02-17T00:15:52.531Z,28.60
2019-02-17T00:16:56.428Z,24.60
2019-02-17T00:18:00.476Z,24.85
2019-02-17T00:19:07.506Z,26.15
2019-02-17T00:20:11.402Z,28.12
2019-02-17T00:21:15.420Z,26.30
2019-02-17T00:22:19.706Z,24.32
2019-02-17T00:23:23.773Z,23.20
2019-02-17T00:24:27.851Z,25.52
2019-02-17T00:25:31.880Z,22.87
2019-02-17T00:26:36.034Z,24.32
2019-02-17T00:27:39.891Z,24.98
2019-02-17T00:28:44.016Z,25.35
2019-02-17T00:29:49.654Z,26.17
2019-02-17T00:30:53.524Z,24.23
2019-02-17T00:31:57.423Z,24.75
2019-02-17T00:33:01.327Z,23.85
2019-02-17T00:34:05.460Z,27.42
2019-02-17T00:35:09.870Z,26.07
2019-02-17T00:36:13.722Z,23.73
2019-02-17T00:37:17.784Z,23.50
2019-02-17T00:38:21.839Z,25.77
2019-02-17T00:39:25.827Z,25.95
2019-02-17T00:40:29.779Z,25.15
2019-02-17T00:41:33.685Z,25.12
2019-02-17T00:42:37.859Z,23.55
2019-02-17T00:43:41.731Z,23.32
2019-02-17T00:44:45.769Z,26.17
2019-02-17T00:45:49.864Z,23.22
2019-02-17T00:46:53.728Z,22.62
2019-02-17T00:47:57.590Z,26.37
2019-02-17T00:49:03.170Z,27.37
2019-02-17T00:50:08.595Z,23.83
2019-02-17T00:51:12.730Z,23.27
2019-02-17T00:52:16.632Z,23.87
2019-02-17T00:53:20.735Z,24.75
2019-02-17T00:54:24.593Z,24.87
2019-02-17T00:55:28.502Z,25.97
2019-02-17T00:56:32.426Z,27.07
2019-02-17T00:57:36.400Z,22.35
2019-02-17T00:58:40.340Z,24.05
2019-02-17T00:59:44.432Z,23.47
2019-02-17T01:00:48.344Z,24.47
2019-02-17T01:01:52.212Z,27.82
2019-02-17T01:02:56.090Z,26.33
2019-02-17T01:04:00.028Z,25.48
2019-02-17T01:05:04.595Z,25.32
2019-02-17T01:06:08.492Z,26.07
2019-02-17T01:07:12.516Z,25.52
2019-02-17T01:08:16.391Z,25.45
2019-02-17T01:09:20.323Z,25.02
2019-02-17T01:10:24.215Z,25.32
2019-02-17T01:11:28.118Z,25.12
2019-02-17T01:12:32.041Z,25.68
2019-02-17T01:13:35.940Z,25.20
2019-02-17T01:14:39.970Z,25.77
2019-02-17T01:15:43.808Z,26.90
2019-02-17T01:16:47.751Z,26.07
2019-02-17T01:17:51.788Z,27.02
2019-02-17T01:18:55.689Z,25.48
2019-02-17T01:19:59.558Z,26.73
2019-02-17T01:21:03.541Z,26.45
2019-02-17T01:22:07.460Z,25.57
2019-02-17T01:23:11.363Z,28.83
2019-02-17T01:24:15.259Z,26.23
2019-02-17T01:25:19.197Z,26.50
2019-02-17T01:26:23.088Z,26.55
2019-02-17T01:27:26.989Z,27.00
2019-02-17T01:28:30.885Z,27.93
2019-02-17T01:29:34.787Z,25.00
2019-02-17T01:30:38.840Z,26.17
2019-02-17T01:31:42.860Z,26.73
2019-02-17T01:32:46.840Z,26.70
2019-02-17T01:33:50.851Z,28.85
2019-02-17T01:34:54.786Z,25.48
2019-02-17T01:35:58.763Z,26.80
2019-02-17T01:37:02.726Z,27.45
2019-02-17T01:38:06.710Z,25.32
2019-02-17T01:39:10.660Z,28.23
2019-02-17T01:40:14.601Z,27.05
2019-02-17T01:41:18.628Z,29.05
2019-02-17T01:42:22.549Z,27.25
2019-02-17T01:43:26.562Z,27.25
2019-02-17T01:44:30.552Z,26.30
2019-02-17T01:45:34.498Z,26.80
2019-02-17T01:46:38.645Z,27.15
2019-02-17T01:47:42.654Z,25.82
2019-02-17T01:48:46.567Z,26.23
2019-02-17T01:49:50.478Z,27.22
2019-02-17T01:50:54.411Z,26.50
2019-02-17T01:51:58.492Z,26.23
2019-02-17T01:53:02.401Z,25.82
2019-02-17T01:54:06.448Z,26.75
2019-02-17T01:55:10.322Z,26.35
2019-02-17T01:56:14.232Z,27.35
2019-02-17T01:57:18.185Z,27.82
2019-02-17T01:58:22.031Z,26.02
2019-02-17T01:59:30.572Z,25.80
2019-02-17T02:00:31.605Z,29.35
2019-02-17T02:01:35.600Z,27.60
2019-02-17T02:02:39.518Z,26.33
2019-02-17T02:03:43.469Z,26.27
2019-02-17T02:04:47.367Z,25.43
2019-02-17T02:05:51.267Z,26.90
2019-02-17T02:06:55.222Z,27.73
2019-02-17T02:08:03.651Z,26.55
2019-02-17T02:09:09.293Z,27.45
2019-02-17T02:10:13.256Z,26.62
2019-02-17T02:11:17.121Z,27.52
2019-02-17T02:12:21.071Z,27.80
2019-02-17T02:13:25.001Z,29.85
2019-02-17T02:14:28.916Z,26.42
2019-02-17T02:15:32.808Z,26.77
2019-02-17T02:16:36.692Z,28.23
2019-02-17T02:17:40.632Z,27.87
2019-02-17T02:18:44.529Z,29.10
2019-02-17T02:19:48.454Z,26.35
2019-02-17T02:20:52.348Z,26.93
2019-02-17T02:21:56.240Z,30.62
2019-02-17T02:23:00.200Z,29.15
2019-02-17T02:24:04.081Z,29.63
2019-02-17T02:25:09.800Z,28.92
2019-02-17T02:26:13.679Z,27.80
2019-02-17T02:27:17.651Z,26.73
2019-02-17T02:28:21.590Z,29.02
2019-02-17T02:29:25.603Z,28.38
2019-02-17T02:30:29.487Z,27.60
2019-02-17T02:31:33.375Z,27.17
2019-02-17T02:32:37.279Z,27.62
2019-02-17T02:33:41.334Z,26.80
2019-02-17T02:34:45.246Z,25.32
2019-02-17T02:35:52.218Z,28.75
2019-02-17T02:36:56.105Z,26.95
2019-02-17T02:37:59.978Z,29.27
2019-02-17T02:39:05.059Z,27.62
2019-02-17T02:40:08.987Z,29.25
2019-02-17T02:41:12.894Z,27.25
2019-02-17T02:42:16.819Z,27.58
2019-02-17T02:43:20.709Z,27.58
2019-02-17T02:44:24.664Z,27.17
2019-02-17T02:45:28.582Z,27.87
2019-02-17T02:46:32.474Z,26.75
2019-02-17T02:47:36.373Z,29.98
2019-02-17T02:48:40.280Z,28.07
2019-02-17T02:49:44.277Z,27.10
2019-02-17T02:50:48.173Z,28.50
2019-02-17T02:51:52.100Z,31.50
2019-02-17T02:52:55.996Z,28.25
2019-02-17T02:53:59.891Z,28.95
2019-02-17T02:55:04.156Z,28.10
2019-02-17T02:56:08.024Z,30.27
2019-02-17T02:57:11.921Z,27.30
2019-02-17T02:58:15.826Z,29.60
2019-02-17T02:59:19.766Z,31.35
2019-02-17T03:00:23.690Z,28.10
2019-02-17T03:01:27.659Z,28.12
2019-02-17T03:02:31.559Z,29.63
2019-02-17T03:03:35.481Z,29.67
2019-02-17T03:04:39.359Z,28.75
2019-02-17T03:05:44.911Z,28.30
2019-02-17T03:06:53.044Z,28.65
2019-02-17T03:07:56.956Z,29.85
2019-02-17T03:09:00.892Z,28.38
2019-02-17T03:10:05.433Z,28.45
2019-02-17T03:11:09.326Z,29.50
2019-02-17T03:12:13.249Z,29.25
2019-02-17T03:13:17.130Z,28.23
2019-02-17T03:14:21.026Z,28.30
2019-02-17T03:15:24.908Z,31.40
2019-02-17T03:16:28.772Z,29.05
2019-02-17T03:17:32.779Z,28.17
2019-02-17T03:18:36.695Z,29.10
2019-02-17T03:19:40.574Z,28.23
2019-02-17T03:20:44.477Z,27.45
2019-02-17T03:21:48.380Z,31.25
2019-02-17T03:22:52.320Z,28.60
2019-02-17T03:23:56.283Z,26.10
2019-02-17T03:25:00.285Z,27.85
2019-02-17T03:26:04.166Z,28.92
2019-02-17T03:27:08.071Z,28.62
2019-02-17T03:28:12.001Z,28.23
2019-02-17T03:29:15.921Z,28.38
2019-02-17T03:30:19.869Z,28.00
2019-02-17T03:31:23.775Z,26.23
2019-02-17T03:32:27.670Z,30.05
2019-02-17T03:33:31.559Z,29.15
2019-02-17T03:34:35.464Z,28.17
2019-02-17T03:35:39.354Z,30.05
2019-02-17T03:36:43.243Z,31.57
2019-02-17T03:37:47.135Z,28.87
2019-02-17T03:38:51.106Z,28.12
2019-02-17T03:39:55.005Z,28.95
2019-02-17T03:40:58.907Z,30.05
2019-02-17T03:42:02.793Z,28.92
2019-02-17T03:43:06.779Z,27.65
2019-02-17T03:44:10.727Z,29.65
2019-02-17T03:45:14.651Z,27.27
2019-02-17T03:46:18.544Z,28.52
2019-02-17T03:47:22.471Z,28.62
2019-02-17T03:48:26.481Z,27.13
2019-02-17T03:49:30.413Z,31.45
2019-02-17T03:50:34.325Z,29.37
2019-02-17T03:51:38.260Z,28.07
2019-02-17T03:52:42.190Z,29.15
2019-02-17T03:53:46.170Z,29.20
2019-02-17T03:54:51.763Z,27.35
2019-02-17T03:55:55.723Z,28.17
2019-02-17T03:56:59.685Z,28.45
2019-02-17T03:58:03.699Z,30.48
2019-02-17T03:59:07.629Z,28.50
2019-02-17T04:00:17.086Z,28.00
2019-02-17T04:01:17.075Z,28.10
2019-02-17T04:02:20.992Z,27.13
2019-02-17T04:03:24.868Z,27.98
2019-02-17T04:04:28.791Z,29.32
2019-02-17T04:05:32.682Z,30.15
2019-02-17T04:06:36.592Z,27.48
2019-02-17T04:07:40.506Z,31.05
2019-02-17T04:08:44.450Z,30.57
2019-02-17T04:09:48.341Z,30.57
2019-02-17T04:10:52.238Z,27.93
2019-02-17T04:11:56.152Z,28.32
2019-02-17T04:13:00.139Z,28.90
2019-02-17T04:14:04.125Z,29.70
2019-02-17T04:15:08.366Z,29.72
2019-02-17T04:16:12.355Z,29.35
2019-02-17T04:17:16.633Z,30.32
2019-02-17T04:18:20.606Z,31.90
2019-02-17T04:19:24.520Z,31.23
2019-02-17T04:20:28.568Z,29.75
2019-02-17T04:21:33.457Z,29.48
2019-02-17T04:22:37.507Z,27.77
2019-02-17T04:23:41.394Z,27.90
2019-02-17T04:24:45.341Z,28.30
2019-02-17T04:25:49.307Z,28.02
2019-02-17T04:26:53.289Z,28.35
2019-02-17T04:27:57.184Z,27.42
2019-02-17T04:29:01.233Z,28.45
2019-02-17T04:30:05.988Z,27.65
2019-02-17T04:31:09.891Z,28.92
2019-02-17T04:32:13.778Z,31.00
2019-02-17T04:33:17.700Z,27.10
2019-02-17T04:34:21.604Z,28.32
2019-02-17T04:35:25.495Z,29.15
2019-02-17T04:36:29.427Z,28.80
2019-02-17T04:37:33.353Z,28.20
2019-02-17T04:38:37.409Z,27.77
2019-02-17T04:39:41.306Z,26.57
2019-02-17T04:40:45.164Z,30.68
2019-02-17T04:41:49.126Z,28.92
2019-02-17T04:42:53.059Z,27.90
2019-02-17T04:43:57.052Z,28.77
2019-02-17T04:45:01.149Z,27.22
2019-02-17T04:46:04.961Z,28.80
2019-02-17T04:47:08.894Z,28.50
2019-02-17T04:48:12.866Z,27.50
2019-02-17T04:49:16.781Z,27.13
2019-02-17T04:50:20.676Z,27.58
2019-02-17T04:51:24.601Z,26.30
2019-02-17T04:52:28.513Z,29.45
2019-02-17T04:53:34.020Z,28.15
2019-02-17T04:54:39.038Z,29.67
2019-02-17T04:55:43.082Z,28.57
2019-02-17T04:56:47.069Z,29.27
2019-02-17T04:57:51.102Z,31.68
2019-02-17T04:58:55.086Z,32.90
2019-02-17T04:59:59.089Z,29.45
2019-02-17T05:01:03.036Z,32.78
2019-02-17T05:02:07.046Z,29.75
2019-02-17T05:03:10.966Z,31.45
2019-02-17T05:04:14.859Z,28.73
2019-02-17T05:05:18.744Z,30.88
2019-02-17T05:06:22.658Z,29.52
2019-02-17T05:07:26.632Z,29.37
2019-02-17T05:08:30.512Z,29.95
2019-02-17T05:09:36.067Z,29.98
2019-02-17T05:10:39.962Z,30.10
2019-02-17T05:11:43.892Z,31.12
2019-02-17T05:12:47.886Z,32.03
2019-02-17T05:13:51.782Z,28.47
2019-02-17T05:14:55.740Z,33.13
2019-02-17T05:15:59.716Z,29.72
2019-02-17T05:17:03.685Z,31.62
2019-02-17T05:18:07.954Z,33.28
2019-02-17T05:19:11.834Z,30.12
2019-02-17T05:20:15.763Z,30.95
2019-02-17T05:21:19.642Z,30.20
2019-02-17T05:22:23.623Z,31.60
2019-02-17T05:23:27.538Z,30.88
2019-02-17T05:24:31.456Z,29.85
2019-02-17T05:25:35.446Z,28.62
2019-02-17T05:26:39.345Z,29.63
2019-02-17T05:27:43.280Z,31.33
2019-02-17T05:28:47.278Z,32.33
2019-02-17T05:29:51.212Z,30.55
2019-02-17T05:30:55.346Z,30.62
2019-02-17T05:31:59.246Z,29.05
2019-02-17T05:33:03.201Z,28.42
2019-02-17T05:34:07.161Z,31.07
2019-02-17T05:35:12.763Z,29.12
2019-02-17T05:36:16.750Z,29.72
2019-02-17T05:37:20.817Z,30.57
2019-02-17T05:38:26.452Z,30.90
2019-02-17T05:39:32.138Z,30.55
2019-02-17T05:40:36.669Z,30.00
2019-02-17T05:41:40.894Z,29.65
2019-02-17T05:42:44.752Z,29.90
2019-02-17T05:43:48.740Z,30.52
2019-02-17T05:44:52.650Z,29.25
2019-02-17T05:45:56.590Z,29.85
2019-02-17T05:47:00.516Z,28.55
2019-02-17T05:48:04.601Z,29.75
2019-02-17T05:49:08.521Z,30.43
2019-02-17T05:50:12.458Z,30.15
2019-02-17T05:51:16.371Z,31.57
2019-02-17T05:52:20.604Z,32.03
2019-02-17T05:53:24.558Z,28.92
2019-02-17T05:54:28.487Z,28.85
2019-02-17T05:55:32.394Z,30.17
2019-02-17T05:56:36.352Z,30.32
2019-02-17T05:57:40.337Z,31.33
2019-02-17T05:58:44.285Z,28.20
2019-02-17T05:59:48.236Z,30.17
2019-02-17T06:01:03.000Z,31.35
2019-02-17T06:01:57.768Z,29.35
2019-02-17T06:03:01.673Z,30.15
2019-02-17T06:04:05.574Z,31.25
2019-02-17T06:05:09.485Z,30.25
2019-02-17T06:06:14.998Z,30.48
2019-02-17T06:07:19.266Z,32.13
2019-02-17T06:08:24.442Z,30.62
2019-02-17T06:09:28.356Z,30.52
2019-02-17T06:10:32.239Z,30.27
2019-02-17T06:11:36.239Z,33.00
2019-02-17T06:12:40.148Z,30.68
2019-02-17T06:13:44.158Z,30.43
2019-02-17T06:14:48.030Z,34.00
2019-02-17T06:15:51.940Z,30.82
2019-02-17T06:16:55.880Z,32.85
2019-02-17T06:17:59.771Z,30.95
2019-02-17T06:19:03.667Z,33.20
2019-02-17T06:20:09.908Z,31.42
2019-02-17T06:21:13.962Z,31.93
2019-02-17T06:22:18.178Z,30.15
2019-02-17T06:23:22.065Z,31.45
2019-02-17T06:24:25.961Z,32.17
2019-02-17T06:25:29.879Z,34.95
2019-02-17T06:26:33.774Z,33.50
2019-02-17T06:27:37.713Z,31.52
2019-02-17T06:28:41.594Z,33.80
2019-02-17T06:29:45.468Z,33.95
2019-02-17T06:30:49.382Z,31.85
2019-02-17T06:31:53.276Z,30.48
2019-02-17T06:32:57.186Z,31.42
2019-02-17T06:34:01.076Z,33.80
2019-02-17T06:35:05.500Z,33.20
2019-02-17T06:36:09.402Z,32.65
2019-02-17T06:37:13.314Z,29.37
2019-02-17T06:38:17.251Z,29.60
2019-02-17T06:39:21.376Z,33.60
2019-02-17T06:40:25.286Z,33.35
2019-02-17T06:41:29.217Z,30.95
2019-02-17T06:42:33.252Z,33.13
2019-02-17T06:43:37.225Z,31.20
2019-02-17T06:44:41.124Z,31.95
2019-02-17T06:45:45.119Z,30.80
2019-02-17T06:46:50.649Z,35.40
2019-02-17T06:47:54.560Z,32.40
2019-02-17T06:48:58.460Z,33.88
2019-02-17T06:50:03.233Z,32.50
2019-02-17T06:51:07.290Z,31.62
2019-02-17T06:52:11.190Z,31.35
2019-02-17T06:53:15.077Z,33.20
2019-02-17T06:54:18.956Z,33.85
2019-02-17T06:55:30.098Z,33.45
2019-02-17T06:56:35.623Z,32.80
2019-02-17T06:57:41.160Z,32.48
2019-02-17T06:58:45.065Z,31.65
2019-02-17T06:59:49.040Z,34.38
2019-02-17T07:00:52.945Z,31.15
2019-02-17T07:01:56.864Z,32.25
2019-02-17T07:03:00.781Z,31.77
2019-02-17T07:04:04.776Z,30.88
2019-02-17T07:05:10.369Z,34.08
2019-02-17T07:06:15.935Z,35.33
2019-02-17T07:07:20.201Z,33.78
2019-02-17T07:08:24.147Z,33.70
2019-02-17T07:09:28.705Z,33.30
2019-02-17T07:10:32.594Z,36.23
2019-02-17T07:11:36.647Z,32.80
2019-02-17T07:12:42.597Z,29.95
2019-02-17T07:13:46.088Z,33.78
2019-02-17T07:14:50.055Z,36.05
2019-02-17T07:15:54.000Z,32.70
2019-02-17T07:16:57.946Z,32.70
2019-02-17T07:18:01.840Z,34.43
2019-02-17T07:19:10.809Z,33.50
2019-02-17T07:20:14.687Z,33.88
2019-02-17T07:21:18.585Z,33.85
2019-02-17T07:22:22.607Z,35.68
2019-02-17T07:23:26.527Z,34.92
2019-02-17T07:24:30.426Z,32.75
2019-02-17T07:25:34.326Z,33.90
2019-02-17T07:26:38.199Z,31.87
2019-02-17T07:27:42.146Z,34.85
2019-02-17T07:28:46.162Z,32.45
2019-02-17T07:29:50.060Z,33.23
2019-02-17T07:30:53.938Z,34.80
2019-02-17T07:31:58.030Z,34.30
2019-02-17T07:33:01.946Z,33.18
2019-02-17T07:34:06.695Z,36.98
2019-02-17T07:35:10.676Z,33.75
2019-02-17T07:36:14.637Z,36.45
2019-02-17T07:37:19.462Z,31.62
2019-02-17T07:38:23.425Z,34.00
2019-02-17T07:39:27.396Z,34.73
2019-02-17T07:40:31.305Z,35.28
2019-02-17T07:41:35.191Z,32.83
2019-02-17T07:42:39.082Z,33.85
2019-02-17T07:43:42.992Z,32.28
2019-02-17T07:44:46.909Z,34.40
2019-02-17T07:45:50.785Z,34.85
2019-02-17T07:46:54.746Z,36.45
2019-02-17T07:47:58.624Z,33.67
2019-02-17T07:49:02.569Z,35.15
2019-02-17T07:50:09.140Z,34.85
2019-02-17T07:51:13.022Z,37.85
2019-02-17T07:52:16.980Z,34.50
2019-02-17T07:53:20.891Z,35.43
2019-02-17T07:54:24.798Z,32.55
2019-02-17T07:55:28.697Z,34.83
2019-02-17T07:56:32.594Z,33.73
2019-02-17T07:57:36.523Z,35.48
2019-02-17T07:58:40.433Z,32.88
2019-02-17T07:59:44.349Z,34.90
2019-02-17T08:00:48.206Z,36.48
2019-02-17T08:01:52.132Z,36.20
2019-02-17T08:02:56.040Z,35.48
2019-02-17T08:03:59.975Z,35.90
2019-02-17T08:05:04.422Z,35.10
2019-02-17T08:06:08.310Z,36.45
2019-02-17T08:07:12.248Z,34.78
2019-02-17T08:08:16.201Z,37.28
2019-02-17T08:09:20.168Z,33.73
2019-02-17T08:10:24.147Z,35.98
2019-02-17T08:11:28.076Z,36.03
2019-02-17T08:12:31.975Z,34.25
2019-02-17T08:13:35.948Z,35.08
2019-02-17T08:14:39.931Z,37.98
2019-02-17T08:15:44.039Z,36.23
2019-02-17T08:16:47.964Z,35.68
2019-02-17T08:17:51.885Z,34.33
2019-02-17T08:18:55.768Z,37.33
2019-02-17T08:19:59.654Z,36.88
2019-02-17T08:21:03.885Z,37.55
2019-02-17T08:22:07.821Z,36.33
2019-02-17T08:23:11.710Z,36.00
2019-02-17T08:24:15.675Z,36.25
2019-02-17T08:25:22.062Z,38.80
2019-02-17T08:26:25.122Z,35.98
2019-02-17T08:27:29.003Z,35.73
2019-02-17T08:28:32.984Z,40.15
2019-02-17T08:29:37.042Z,36.13
2019-02-17T08:30:40.921Z,36.13
2019-02-17T08:31:54.909Z,38.48
2019-02-17T08:32:50.528Z,35.90
2019-02-17T08:33:54.427Z,37.42
2019-02-17T08:34:58.317Z,38.75
2019-02-17T08:36:02.217Z,36.70
2019-02-17T08:37:06.299Z,34.90
2019-02-17T08:38:10.219Z,38.90
2019-02-17T08:39:14.211Z,36.15
2019-02-17T08:40:18.114Z,39.35
2019-02-17T08:41:22.002Z,38.73
2019-02-17T08:42:25.898Z,37.20
2019-02-17T08:43:29.851Z,36.95
2019-02-17T08:44:33.730Z,40.50
2019-02-17T08:45:37.740Z,36.42
2019-02-17T08:46:41.823Z,35.08
2019-02-17T08:47:46.002Z,41.80
2019-02-17T08:48:50.073Z,37.28
2019-02-17T08:49:54.011Z,39.13
2019-02-17T08:50:57.949Z,38.25
2019-02-17T08:52:01.844Z,38.45
2019-02-17T08:53:05.793Z,40.58
2019-02-17T08:54:09.775Z,37.85
2019-02-17T08:55:13.687Z,39.10
2019-02-17T08:56:18.807Z,36.40
2019-02-17T08:57:22.887Z,37.58
2019-02-17T08:58:27.116Z,36.48
2019-02-17T08:59:31.021Z,39.65
2019-02-17T09:00:34.918Z,40.08
2019-02-17T09:01:40.511Z,38.45
2019-02-17T09:02:44.581Z,37.28
2019-02-17T09:03:48.529Z,36.83
2019-02-17T09:04:52.460Z,37.88
2019-02-17T09:05:56.819Z,39.38
2019-02-17T09:07:00.934Z,39.05
2019-02-17T09:08:04.887Z,36.60
2019-02-17T09:09:08.868Z,37.53
2019-02-17T09:10:13.117Z,40.25
2019-02-17T09:11:17.342Z,36.68
2019-02-17T09:12:21.297Z,37.48
2019-02-17T09:13:25.136Z,38.83
2019-02-17T09:14:29.041Z,38.13
2019-02-17T09:15:33.000Z,37.70
2019-02-17T09:16:36.998Z,39.80
2019-02-17T09:17:41.178Z,36.98
2019-02-17T09:18:45.065Z,39.13
2019-02-17T09:19:49.042Z,38.25
2019-02-17T09:20:53.139Z,36.85
2019-02-17T09:21:57.107Z,38.78
2019-02-17T09:23:01.400Z,35.78
2019-02-17T09:24:05.490Z,36.63
2019-02-17T09:25:11.292Z,37.05
2019-02-17T09:26:15.269Z,37.38
2019-02-17T09:27:19.447Z,39.98
2019-02-17T09:28:23.351Z,33.35
2019-02-17T09:29:27.297Z,35.75
2019-02-17T09:30:31.197Z,35.50
2019-02-17T09:31:35.187Z,35.45
2019-02-17T09:32:39.094Z,35.75
2019-02-17T09:33:43.010Z,34.03
2019-02-17T09:34:47.139Z,34.58
2019-02-17T09:35:51.069Z,34.15
2019-02-17T09:36:55.153Z,34.73
2019-02-17T09:37:59.097Z,33.15
2019-02-17T09:39:04.638Z,34.45
2019-02-17T09:40:10.962Z,34.78
2019-02-17T09:41:14.849Z,34.00
2019-02-17T09:42:19.435Z,33.15
2019-02-17T09:43:23.376Z,33.45
2019-02-17T09:44:27.813Z,32.00
2019-02-17T09:45:31.843Z,32.50
2019-02-17T09:46:35.886Z,32.30
2019-02-17T09:47:39.788Z,31.95
2019-02-17T09:48:43.877Z,32.40
2019-02-17T09:49:47.883Z,33.88
2019-02-17T09:50:51.836Z,32.30
2019-02-17T09:51:55.937Z,31.68
2019-02-17T09:52:59.822Z,31.80
2019-02-17T09:54:03.732Z,32.33
2019-02-17T09:55:10.690Z,32.13
2019-02-17T09:56:14.646Z,30.48
2019-02-17T09:57:19.014Z,32.78
2019-02-17T09:58:22.964Z,31.10
2019-02-17T09:59:26.996Z,31.87
2019-02-17T10:00:30.926Z,32.73
2019-02-17T10:01:34.784Z,33.23
2019-02-17T10:02:38.684Z,32.67
2019-02-17T10:03:42.644Z,33.83
2019-02-17T10:04:46.529Z,32.38
2019-02-17T10:05:50.607Z,31.60
2019-02-17T10:06:54.611Z,32.25
2019-02-17T10:07:58.907Z,35.52
2019-02-17T10:09:03.164Z,36.03
2019-02-17T10:10:13.243Z,31.90
2019-02-17T10:11:17.269Z,32.05
2019-02-17T10:12:21.164Z,32.33
2019-02-17T10:13:25.177Z,33.42
2019-02-17T10:14:29.086Z,33.60
2019-02-17T10:15:33.083Z,31.20
2019-02-17T10:16:37.088Z,33.05
2019-02-17T10:17:41.067Z,32.13
2019-02-17T10:18:44.985Z,33.65
2019-02-17T10:19:49.221Z,33.78
2019-02-17T10:20:53.141Z,31.97
2019-02-17T10:21:57.289Z,32.95
2019-02-17T10:23:01.136Z,31.27
2019-02-17T10:24:05.072Z,33.05
2019-02-17T10:25:12.224Z,33.35
2019-02-17T10:26:16.225Z,29.65
2019-02-17T10:27:20.350Z,28.77
2019-02-17T10:28:28.555Z,32.03
2019-02-17T10:29:32.475Z,32.75
2019-02-17T10:30:36.649Z,33.53
2019-02-17T10:31:40.638Z,30.20
2019-02-17T10:32:47.518Z,30.48
2019-02-17T10:33:51.434Z,34.67
2019-02-17T10:34:55.442Z,32.63
2019-02-17T10:35:59.313Z,32.33
2019-02-17T10:37:03.293Z,30.97
2019-02-17T10:38:07.230Z,30.65
2019-02-17T10:39:11.233Z,32.00
2019-02-17T10:40:19.351Z,31.25
2019-02-17T10:41:23.233Z,32.45
2019-02-17T10:42:30.444Z,33.28
2019-02-17T10:43:34.412Z,34.40
2019-02-17T10:44:38.532Z,34.55
2019-02-17T10:45:43.750Z,33.75
2019-02-17T10:46:47.756Z,32.53
2019-02-17T10:47:51.720Z,34.75
2019-02-17T10:48:55.812Z,30.60
2019-02-17T10:49:59.775Z,33.20
2019-02-17T10:51:03.769Z,35.52
2019-02-17T10:52:07.668Z,33.80
2019-02-17T10:53:11.567Z,34.83
2019-02-17T10:54:15.457Z,33.48
2019-02-17T10:55:19.452Z,33.90
2019-02-17T10:56:23.329Z,33.00
2019-02-17T10:57:27.368Z,31.80
2019-02-17T10:58:31.384Z,31.93
2019-02-17T10:59:35.330Z,33.75
2019-02-17T11:00:39.289Z,31.33
2019-02-17T11:01:43.189Z,33.00
2019-02-17T11:02:47.803Z,31.48
2019-02-17T11:04:01.144Z,31.50
2019-02-17T11:05:06.918Z,32.38
2019-02-17T11:06:10.935Z,30.92
2019-02-17T11:07:14.855Z,30.37
2019-02-17T11:08:18.888Z,30.10
2019-02-17T11:09:22.755Z,31.27
2019-02-17T11:10:26.654Z,30.82
2019-02-17T11:11:30.678Z,30.25
2019-02-17T11:12:34.567Z,30.23
2019-02-17T11:13:38.458Z,29.52
2019-02-17T11:14:42.344Z,31.50
2019-02-17T11:15:46.261Z,25.97
2019-02-17T11:16:50.212Z,29.45
2019-02-17T11:17:54.116Z,27.35
2019-02-17T11:18:58.092Z,26.65
2019-02-17T11:20:01.989Z,28.35
2019-02-17T11:21:05.899Z,28.15
2019-02-17T11:22:09.858Z,28.90
2019-02-17T11:23:13.757Z,26.45
2019-02-17T11:24:17.728Z,28.45
2019-02-17T11:25:21.661Z,27.37
2019-02-17T11:26:25.528Z,25.52
2019-02-17T11:27:29.481Z,27.73
2019-02-17T11:28:33.400Z,25.57
2019-02-17T11:29:37.320Z,25.90
2019-02-17T11:30:41.212Z,27.20
2019-02-17T11:31:45.156Z,25.27
2019-02-17T11:32:57.667Z,25.02
2019-02-17T11:33:54.734Z,25.43
2019-02-17T11:34:58.712Z,25.15
2019-02-17T11:36:02.611Z,24.60
2019-02-17T11:37:06.584Z,24.52
2019-02-17T11:38:10.557Z,26.00
2019-02-17T11:39:16.123Z,23.87
2019-02-17T11:40:20.125Z,24.50
2019-02-17T11:41:24.098Z,23.60
2019-02-17T11:42:28.083Z,23.83
2019-02-17T11:43:32.079Z,26.20
2019-02-17T11:44:36.005Z,23.52
2019-02-17T11:45:39.897Z,25.95
2019-02-17T11:46:43.868Z,22.95
2019-02-17T11:47:47.788Z,22.82
2019-02-17T11:48:51.770Z,28.07
2019-02-17T11:49:55.834Z,22.85
2019-02-17T11:50:59.712Z,22.27
2019-02-17T11:52:03.662Z,24.85
2019-02-17T11:53:07.574Z,22.93
2019-02-17T11:54:11.535Z,21.80
2019-02-17T11:55:16.069Z,25.00
2019-02-17T11:56:19.958Z,23.18
2019-02-17T11:57:23.921Z,21.00
2019-02-17T11:58:27.881Z,23.05
2019-02-17T11:59:31.839Z,22.07
2019-02-17T12:00:35.918Z,22.93
2019-02-17T12:01:39.835Z,20.77
2019-02-17T12:02:43.892Z,19.52
2019-02-17T12:03:48.019Z,20.97
2019-02-17T12:04:51.986Z,21.30
2019-02-17T12:05:56.004Z,20.50
2019-02-17T12:07:00.386Z,20.72
2019-02-17T12:08:04.536Z,21.23
2019-02-17T12:09:08.464Z,20.15
2019-02-17T12:10:12.464Z,20.15
2019-02-17T12:11:16.545Z,20.12
2019-02-17T12:12:22.097Z,18.95
2019-02-17T12:13:26.070Z,19.65
2019-02-17T12:14:32.323Z,19.55
2019-02-17T12:15:36.219Z,18.90
2019-02-17T12:16:40.224Z,19.35
2019-02-17T12:17:44.272Z,18.98
2019-02-17T12:18:48.305Z,18.35
2019-02-17T12:19:54.043Z,19.02
2019-02-17T12:21:02.692Z,18.67
2019-02-17T12:22:09.280Z,17.85
2019-02-17T12:23:28.308Z,18.60
2019-02-17T12:24:34.097Z,18.70
2019-02-17T12:25:39.686Z,18.40
2019-02-17T12:26:51.103Z,17.60
2019-02-17T12:27:56.704Z,17.60
2019-02-17T12:29:02.231Z,16.70
2019-02-17T12:30:09.165Z,18.00
2019-02-17T12:31:14.710Z,17.00
2019-02-17T12:32:20.342Z,17.62
2019-02-17T12:33:24.244Z,17.57
2019-02-17T12:34:28.145Z,18.00
2019-02-17T12:35:32.140Z,17.50
2019-02-17T12:36:36.148Z,18.17
2019-02-17T12:37:40.099Z,18.77
2019-02-17T12:38:44.013Z,17.40
2019-02-17T12:39:49.063Z,17.37
2019-02-17T12:40:53.073Z,17.82
2019-02-17T12:41:58.473Z,17.95
2019-02-17T12:43:02.505Z,17.17
2019-02-17T12:44:06.402Z,18.02
2019-02-17T12:45:12.365Z,17.32
2019-02-17T12:46:16.347Z,19.07
2019-02-17T12:47:20.290Z,18.52
2019-02-17T12:48:24.297Z,18.95
2019-02-17T12:49:29.403Z,17.55
2019-02-17T12:50:33.326Z,17.73
2019-02-17T12:51:37.414Z,18.57
2019-02-17T12:52:47.307Z,19.50
2019-02-17T12:53:48.323Z,19.20
2019-02-17T12:54:52.329Z,17.60
2019-02-17T12:55:56.312Z,18.27
2019-02-17T12:57:00.283Z,18.35
2019-02-17T12:58:04.225Z,18.55
2019-02-17T12:59:08.215Z,18.32
2019-02-17T13:00:15.767Z,18.25
2019-02-17T13:01:19.779Z,18.85
2019-02-17T13:02:23.717Z,19.00
2019-02-17T13:03:28.749Z,18.98
2019-02-17T13:04:32.938Z,19.40
2019-02-17T13:05:36.897Z,18.05
2019-02-17T13:06:40.845Z,16.82
2019-02-17T13:07:44.838Z,18.45
2019-02-17T13:08:48.742Z,19.60
2019-02-17T13:09:52.911Z,17.82
2019-02-17T13:10:56.932Z,17.52
2019-02-17T13:12:00.873Z,18.95
2019-02-17T13:13:04.918Z,17.98
2019-02-17T13:14:09.051Z,17.80
2019-02-17T13:15:14.862Z,17.65
2019-02-17T13:16:18.703Z,18.30
2019-02-17T13:17:22.726Z,17.67
2019-02-17T13:18:26.635Z,17.07
2019-02-17T13:19:30.587Z,17.92
2019-02-17T13:20:34.639Z,16.73
2019-02-17T13:21:40.464Z,16.82
2019-02-17T13:22:44.508Z,17.02
2019-02-17T13:23:48.684Z,16.25
2019-02-17T13:24:52.567Z,16.05
2019-02-17T13:25:56.443Z,16.00
2019-02-17T13:27:00.600Z,16.52
2019-02-17T13:28:04.681Z,15.10
2019-02-17T13:29:08.698Z,15.23
2019-02-17T13:30:15.871Z,14.83
2019-02-17T13:31:19.961Z,14.45
2019-02-17T13:32:23.965Z,14.07
2019-02-17T13:33:28.048Z,13.90
2019-02-17T13:34:32.005Z,13.30
2019-02-17T13:35:36.003Z,13.68
2019-02-17T13:36:40.408Z,11.90
2019-02-17T13:37:44.498Z,12.40
2019-02-17T13:38:48.598Z,12.80
2019-02-17T13:39:52.570Z,12.85
2019-02-17T13:40:56.583Z,13.13
2019-02-17T13:42:00.655Z,11.43
2019-02-17T13:43:04.884Z,11.90
2019-02-17T13:44:08.889Z,11.28
2019-02-17T13:45:17.396Z,12.95
2019-02-17T13:46:21.397Z,12.35
2019-02-17T13:47:27.169Z,13.90